createdAt,value
2023-03-30T00:02:23.812Z,44.93
2023-03-30T00:04:57.339Z,44.85
2023-03-30T00:07:30.142Z,44.95
2023-03-30T00:10:03.157Z,44.87
2023-03-30T00:12:36.176Z,44.96
2023-03-30T00:15:09.165Z,44.88
2023-03-30T00:17:42.167Z,44.94
2023-03-30T00:20:15.533Z,44.98
2023-03-30T00:22:49.118Z,44.95
2023-03-30T00:25:22.109Z,44.98
2023-03-30T00:27:55.143Z,44.99
2023-03-30T00:30:28.222Z,45.04
2023-03-30T00:33:01.242Z,45.05
2023-03-30T00:35:34.430Z,45.07
2023-03-30T00:38:08.320Z,45.05
2023-03-30T00:40:42.198Z,45.06
2023-03-30T00:43:14.902Z,45.08
2023-03-30T00:45:48.149Z,45.11
2023-03-30T00:48:20.893Z,45.07
2023-03-30T00:50:54.205Z,45.10
2023-03-30T00:53:27.324Z,45.09
2023-03-30T00:56:00.215Z,45.10
2023-03-30T00:58:33.320Z,45.10
2023-03-30T01:01:06.315Z,45.12
2023-03-30T01:03:39.422Z,45.12
2023-03-30T01:06:12.028Z,45.18
2023-03-30T01:08:45.088Z,45.17
2023-03-30T01:11:18.250Z,45.20
2023-03-30T01:13:51.209Z,45.20
2023-03-30T01:16:23.973Z,45.19
2023-03-30T01:19:03.212Z,45.13
2023-03-30T01:21:36.358Z,45.12
2023-03-30T01:24:09.262Z,45.17
2023-03-30T01:26:42.266Z,45.16
2023-03-30T01:29:15.400Z,45.16
2023-03-30T01:31:49.424Z,45.11
2023-03-30T01:34:22.234Z,45.13
2023-03-30T01:36:55.286Z,45.11
2023-03-30T01:39:28.336Z,45.14
2023-03-30T01:42:01.331Z,45.10
2023-03-30T01:44:34.091Z,45.14
2023-03-30T01:47:07.257Z,45.11
2023-03-30T01:49:40.329Z,45.05
2023-03-30T01:52:13.274Z,45.13
2023-03-30T01:54:46.371Z,45.11
2023-03-30T01:57:19.448Z,45.12
2023-03-30T01:59:53.280Z,45.14
2023-03-30T02:02:26.221Z,45.14
2023-03-30T02:04:59.422Z,45.15
2023-03-30T02:07:46.345Z,45.18
2023-03-30T02:10:19.039Z,45.22
2023-03-30T02:12:52.300Z,45.26
2023-03-30T02:15:25.466Z,45.27
2023-03-30T02:17:59.086Z,45.21
2023-03-30T02:20:32.451Z,45.23
2023-03-30T02:23:06.407Z,45.26
2023-03-30T02:25:40.164Z,45.19
2023-03-30T02:28:13.193Z,45.23
2023-03-30T02:30:46.528Z,45.24
2023-03-30T02:33:20.234Z,45.22
2023-03-30T02:35:53.378Z,45.23
2023-03-30T02:38:26.228Z,45.23
2023-03-30T02:40:59.338Z,45.24
2023-03-30T02:43:32.430Z,45.23
2023-03-30T02:46:09.327Z,45.27
2023-03-30T02:48:42.492Z,45.27
2023-03-30T02:51:15.162Z,45.29
2023-03-30T02:53:48.652Z,45.32
2023-03-30T02:56:22.097Z,45.29
2023-03-30T02:58:55.084Z,45.34
2023-03-30T03:01:28.461Z,45.31
2023-03-30T03:04:01.383Z,45.31
2023-03-30T03:06:34.550Z,45.30
2023-03-30T03:09:08.568Z,45.29
2023-03-30T03:11:42.570Z,45.32
2023-03-30T03:14:16.465Z,45.32
2023-03-30T03:16:49.356Z,45.31
2023-03-30T03:19:22.425Z,45.25
2023-03-30T03:21:55.120Z,45.24
2023-03-30T03:24:28.474Z,45.26
2023-03-30T03:27:01.327Z,45.23
2023-03-30T03:29:34.153Z,45.23
2023-03-30T03:32:07.492Z,45.25
2023-03-30T03:34:40.253Z,45.23
2023-03-30T03:37:17.042Z,45.24
2023-03-30T03:39:50.269Z,45.25
2023-03-30T03:42:23.162Z,45.24
2023-03-30T03:44:56.147Z,45.25
2023-03-30T03:47:29.498Z,45.25
2023-03-30T03:50:02.178Z,45.25
2023-03-30T03:52:35.384Z,45.27
2023-03-30T03:55:08.598Z,45.29
2023-03-30T03:57:42.342Z,45.26
2023-03-30T04:00:17.482Z,45.31
2023-03-30T04:02:50.261Z,45.27
2023-03-30T04:05:23.186Z,45.32
2023-03-30T04:07:56.196Z,45.31
2023-03-30T04:10:29.364Z,45.34
2023-03-30T04:13:02.242Z,45.35
2023-03-30T04:15:35.205Z,45.35
2023-03-30T04:18:08.605Z,45.36
2023-03-30T04:20:41.513Z,45.40
2023-03-30T04:23:14.439Z,45.38
2023-03-30T04:25:47.718Z,45.40
2023-03-30T04:28:21.269Z,45.42
2023-03-30T04:30:54.434Z,45.44
2023-03-30T04:33:27.378Z,45.43
2023-03-30T04:36:00.521Z,45.45
2023-03-30T04:38:33.398Z,45.49
2023-03-30T04:41:06.550Z,45.42
2023-03-30T04:43:39.552Z,45.45
2023-03-30T04:46:12.495Z,45.44
2023-03-30T04:48:45.333Z,45.46
2023-03-30T04:51:18.243Z,45.48
2023-03-30T04:53:51.467Z,45.55
2023-03-30T04:56:24.324Z,45.48
2023-03-30T04:58:57.643Z,45.25
2023-03-30T05:01:30.370Z,45.09
2023-03-30T05:04:03.279Z,45.07
2023-03-30T05:06:36.613Z,45.11
2023-03-30T05:11:59.301Z,45.05
2023-03-30T05:14:32.505Z,44.95
2023-03-30T05:17:05.736Z,44.88
2023-03-30T05:19:38.447Z,44.94
2023-03-30T05:22:11.729Z,44.94
2023-03-30T05:24:44.675Z,44.97
2023-03-30T05:27:17.339Z,45.07
2023-03-30T05:29:50.541Z,45.10
2023-03-30T05:32:23.630Z,45.09
2023-03-30T05:34:56.794Z,45.19
2023-03-30T05:37:30.457Z,45.20
2023-03-30T05:40:03.660Z,45.23
2023-03-30T05:42:36.748Z,45.21
2023-03-30T05:45:09.751Z,45.18
2023-03-30T05:47:42.777Z,45.12
2023-03-30T05:50:15.605Z,45.10
2023-03-30T05:53:02.571Z,45.03
2023-03-30T05:55:35.472Z,45.02
2023-03-30T05:58:08.640Z,45.01
2023-03-30T06:00:41.651Z,45.08
2023-03-30T06:03:14.624Z,45.13
2023-03-30T06:05:47.352Z,45.17
2023-03-30T06:08:22.622Z,45.12
2023-03-30T06:10:53.759Z,45.13
2023-03-30T06:13:26.766Z,45.19
2023-03-30T06:16:02.346Z,45.16
2023-03-30T06:18:32.633Z,45.18
2023-03-30T06:21:05.850Z,45.19
2023-03-30T06:23:38.674Z,45.17
2023-03-30T06:26:11.856Z,45.14
2023-03-30T06:28:45.797Z,45.15
2023-03-30T06:31:18.773Z,45.17
2023-03-30T06:33:51.765Z,45.22
2023-03-30T06:36:44.606Z,45.22
2023-03-30T06:38:57.708Z,45.23
2023-03-30T06:41:30.759Z,45.21
2023-03-30T06:44:03.703Z,45.23
2023-03-30T06:46:36.776Z,45.23
2023-03-30T06:49:09.729Z,45.21
2023-03-30T06:51:42.828Z,45.21
2023-03-30T06:54:15.700Z,45.27
2023-03-30T06:56:48.797Z,45.21
2023-03-30T06:59:21.782Z,45.21
2023-03-30T07:01:57.864Z,45.19
2023-03-30T07:04:31.042Z,45.25
2023-03-30T07:07:04.694Z,45.28
2023-03-30T07:09:37.818Z,45.24
2023-03-30T07:12:10.774Z,45.24
2023-03-30T07:14:43.932Z,45.25
2023-03-30T07:17:18.167Z,45.21
2023-03-30T07:19:50.880Z,45.22
2023-03-30T07:22:23.767Z,45.25
2023-03-30T07:24:56.616Z,45.23
2023-03-30T07:27:29.810Z,45.22
2023-03-30T07:30:13.835Z,45.23
2023-03-30T07:32:35.800Z,45.23
2023-03-30T07:35:08.759Z,45.23
2023-03-30T07:37:41.758Z,45.26
2023-03-30T07:40:14.786Z,45.24
2023-03-30T07:42:47.981Z,45.19
2023-03-30T07:45:22.027Z,45.20
2023-03-30T07:47:55.892Z,45.21
2023-03-30T07:50:28.843Z,45.24
2023-03-30T07:53:01.832Z,45.25
2023-03-30T07:55:35.004Z,45.29
2023-03-30T07:58:08.850Z,45.27
2023-03-30T08:00:41.962Z,45.25
2023-03-30T08:03:20.412Z,45.26
2023-03-30T08:05:53.645Z,45.25
2023-03-30T08:08:26.890Z,45.27
2023-03-30T08:10:59.917Z,45.29
2023-03-30T08:13:33.000Z,45.26
2023-03-30T08:16:06.087Z,45.30
2023-03-30T08:18:38.776Z,45.29
2023-03-30T08:21:11.830Z,45.28
2023-03-30T08:23:44.988Z,45.29
2023-03-30T08:26:17.783Z,45.31
2023-03-30T08:28:50.978Z,45.30
2023-03-30T08:31:23.982Z,45.25
2023-03-30T08:33:56.976Z,45.29
2023-03-30T08:36:30.046Z,45.31
2023-03-30T08:39:04.058Z,45.37
2023-03-30T08:41:37.924Z,45.38
2023-03-30T08:44:10.985Z,45.36
2023-03-30T08:46:43.969Z,45.38
2023-03-30T08:49:16.890Z,45.34
2023-03-30T08:51:49.935Z,45.38
2023-03-30T08:54:22.974Z,45.44
2023-03-30T08:56:56.021Z,45.43
2023-03-30T08:59:29.117Z,45.53
2023-03-30T09:02:02.961Z,45.49
2023-03-30T09:04:35.998Z,45.61
2023-03-30T09:07:09.057Z,45.68
2023-03-30T09:09:43.114Z,45.75
2023-03-30T09:12:16.922Z,45.77
2023-03-30T09:14:49.942Z,45.79
2023-03-30T09:17:23.005Z,45.84
2023-03-30T09:19:56.111Z,45.92
2023-03-30T09:22:29.977Z,45.93
2023-03-30T09:25:03.044Z,45.93
2023-03-30T09:27:35.996Z,46.00
2023-03-30T09:30:09.047Z,45.96
2023-03-30T09:32:42.136Z,46.02
2023-03-30T09:35:14.947Z,46.02
2023-03-30T09:37:48.015Z,45.93
2023-03-30T09:40:20.994Z,45.85
2023-03-30T09:42:54.212Z,45.80
2023-03-30T09:45:28.047Z,45.76
2023-03-30T09:48:01.084Z,45.72
2023-03-30T09:50:34.054Z,45.69
2023-03-30T09:53:07.261Z,45.79
2023-03-30T09:55:40.989Z,45.79
2023-03-30T09:58:28.030Z,45.81
2023-03-30T10:01:01.138Z,45.88
2023-03-30T10:03:34.259Z,45.88
2023-03-30T10:06:07.247Z,45.90
2023-03-30T10:08:40.124Z,45.88
2023-03-30T10:11:12.916Z,45.77
2023-03-30T10:13:46.052Z,45.83
2023-03-30T10:16:19.073Z,45.80
2023-03-30T10:18:52.391Z,45.83
2023-03-30T10:21:26.198Z,45.82
2023-03-30T10:24:00.015Z,45.81
2023-03-30T10:26:33.097Z,45.80
2023-03-30T10:29:06.242Z,45.76
2023-03-30T10:31:40.185Z,45.76
2023-03-30T10:34:13.160Z,45.79
2023-03-30T10:36:48.650Z,45.81
2023-03-30T10:39:19.786Z,45.73
2023-03-30T10:41:53.188Z,45.75
2023-03-30T10:44:26.082Z,45.74
2023-03-30T10:46:59.138Z,45.71
2023-03-30T10:49:32.168Z,45.70
2023-03-30T10:52:05.226Z,45.69
2023-03-30T10:54:39.086Z,45.69
2023-03-30T10:57:12.166Z,45.73
2023-03-30T10:59:45.081Z,45.70
2023-03-30T11:02:18.083Z,45.68
2023-03-30T11:04:51.161Z,45.68
2023-03-30T11:07:24.092Z,45.69
2023-03-30T11:09:57.092Z,45.62
2023-03-30T11:12:30.163Z,45.56
2023-03-30T11:15:03.235Z,45.66
2023-03-30T11:17:36.211Z,45.57
2023-03-30T11:20:09.189Z,45.62
2023-03-30T11:22:42.194Z,45.57
2023-03-30T11:25:15.205Z,45.62
2023-03-30T11:27:48.159Z,45.59
2023-03-30T11:30:21.126Z,45.58
2023-03-30T11:32:54.400Z,45.57
2023-03-30T11:35:28.312Z,45.53
2023-03-30T11:38:02.186Z,45.58
2023-03-30T11:40:35.395Z,45.57
2023-03-30T11:43:09.198Z,45.60
2023-03-30T11:45:42.309Z,45.55
2023-03-30T11:48:16.130Z,45.60
2023-03-30T11:50:49.233Z,45.61
2023-03-30T11:53:21.847Z,45.57
2023-03-30T11:55:55.222Z,45.58
2023-03-30T11:58:27.964Z,45.53
2023-03-30T12:01:01.231Z,45.47
2023-03-30T12:03:34.348Z,45.17
2023-03-30T12:06:07.163Z,44.98
2023-03-30T12:08:40.125Z,45.12
2023-03-30T12:11:13.245Z,45.20
2023-03-30T12:13:51.301Z,45.20
2023-03-30T12:16:18.985Z,45.24
2023-03-30T12:18:52.247Z,45.32
2023-03-30T12:21:25.317Z,45.35
2023-03-30T12:23:58.135Z,45.34
2023-03-30T12:26:31.171Z,45.31
2023-03-30T12:29:26.260Z,45.32
2023-03-30T12:31:37.335Z,45.34
2023-03-30T12:34:10.334Z,45.32
2023-03-30T12:36:43.482Z,45.37
2023-03-30T12:39:17.235Z,45.29
2023-03-30T12:41:50.305Z,45.28
2023-03-30T12:44:23.247Z,45.34
2023-03-30T12:46:56.383Z,45.37
2023-03-30T12:49:30.334Z,45.36
2023-03-30T12:52:03.426Z,45.40
2023-03-30T12:54:37.298Z,45.36
2023-03-30T12:57:10.572Z,45.38
2023-03-30T12:59:44.439Z,45.34
2023-03-30T13:02:18.228Z,45.37
2023-03-30T13:04:51.395Z,45.39
2023-03-30T13:07:23.996Z,45.39
2023-03-30T13:09:57.203Z,45.37
2023-03-30T13:12:29.995Z,45.31
2023-03-30T13:15:03.140Z,45.38
2023-03-30T13:17:36.043Z,45.32
2023-03-30T13:20:22.188Z,45.32
2023-03-30T13:22:42.316Z,45.35
2023-03-30T13:25:15.016Z,45.33
2023-03-30T13:27:48.147Z,45.28
2023-03-30T13:30:21.029Z,45.24
2023-03-30T13:32:54.258Z,45.25
2023-03-30T13:35:27.188Z,45.29
2023-03-30T13:38:00.223Z,45.13
2023-03-30T13:40:41.417Z,45.04
2023-03-30T13:43:06.143Z,44.88
2023-03-30T13:45:39.157Z,44.71
2023-03-30T13:48:12.250Z,44.62
2023-03-30T13:50:45.231Z,44.44
2023-03-30T13:53:18.082Z,44.49
2023-03-30T13:55:51.216Z,44.39
2023-03-30T13:58:24.060Z,44.22
2023-03-30T14:00:57.417Z,43.87
2023-03-30T14:03:30.440Z,43.61
2023-03-30T14:06:03.611Z,43.35
2023-03-30T14:08:36.227Z,43.30
2023-03-30T14:11:09.597Z,43.14
2023-03-30T14:13:43.577Z,42.96
2023-03-30T14:16:17.375Z,42.92
2023-03-30T14:18:50.495Z,42.90
2023-03-30T14:21:23.345Z,43.04
2023-03-30T14:23:56.389Z,43.12
2023-03-30T14:26:29.516Z,43.19
2023-03-30T14:29:02.239Z,43.34
2023-03-30T14:31:35.622Z,43.44
2023-03-30T14:34:09.508Z,43.51
2023-03-30T14:36:42.630Z,43.56
2023-03-30T14:39:16.394Z,43.57
2023-03-30T14:41:49.506Z,43.60
2023-03-30T14:44:22.429Z,43.68
2023-03-30T14:46:55.500Z,43.72
2023-03-30T14:49:28.423Z,43.76
2023-03-30T14:52:01.489Z,43.79
2023-03-30T14:54:34.433Z,43.84
2023-03-30T14:57:07.617Z,43.84
2023-03-30T14:59:40.518Z,43.88
2023-03-30T15:02:13.511Z,43.92
2023-03-30T15:04:46.518Z,43.96
2023-03-30T15:07:19.179Z,43.97
2023-03-30T15:09:52.595Z,43.96
2023-03-30T15:12:25.701Z,44.01
2023-03-30T15:14:59.472Z,43.97
2023-03-30T15:17:32.507Z,44.03
2023-03-30T15:20:05.405Z,44.06
2023-03-30T15:22:38.533Z,44.10
2023-03-30T15:25:11.576Z,44.12
2023-03-30T15:27:44.603Z,44.16
2023-03-30T15:30:17.484Z,44.15
2023-03-30T15:32:50.511Z,44.18
2023-03-30T15:35:23.456Z,44.20
2023-03-30T15:37:56.199Z,44.22
2023-03-30T15:40:29.487Z,44.22
2023-03-30T15:43:03.533Z,44.22
2023-03-30T15:48:26.831Z,44.26
2023-03-30T15:51:00.558Z,44.27
2023-03-30T15:53:33.507Z,44.25
2023-03-30T15:56:06.504Z,44.25
2023-03-30T15:58:39.324Z,44.20
2023-03-30T16:01:12.621Z,44.20
2023-03-30T16:03:45.377Z,44.20
2023-03-30T16:06:18.475Z,44.16
2023-03-30T16:08:51.377Z,44.15
2023-03-30T16:11:24.501Z,44.14
2023-03-30T16:13:57.615Z,44.18
2023-03-30T16:16:30.552Z,44.25
2023-03-30T16:19:03.793Z,44.27
2023-03-30T16:21:37.556Z,44.32
2023-03-30T16:24:10.686Z,44.31
2023-03-30T16:26:43.735Z,44.33
2023-03-30T16:29:17.553Z,44.32
2023-03-30T16:31:50.717Z,44.34
2023-03-30T16:34:23.630Z,44.33
2023-03-30T16:36:59.598Z,44.31
2023-03-30T16:39:32.301Z,44.30
2023-03-30T16:42:05.726Z,44.28
2023-03-30T16:44:38.292Z,44.27
2023-03-30T16:47:11.754Z,44.28
2023-03-30T16:49:45.626Z,44.30
2023-03-30T16:52:18.624Z,44.34
2023-03-30T16:54:51.442Z,44.37
2023-03-30T16:57:24.755Z,44.40
2023-03-30T16:59:57.746Z,44.43
2023-03-30T17:02:31.385Z,44.45
2023-03-30T17:05:04.552Z,44.43
2023-03-30T17:07:37.556Z,44.45
2023-03-30T17:10:10.498Z,44.46
2023-03-30T17:12:43.516Z,44.50
2023-03-30T17:15:16.349Z,44.52
2023-03-30T17:17:49.423Z,44.56
2023-03-30T17:20:22.364Z,44.53
2023-03-30T17:22:55.706Z,44.54
2023-03-30T17:25:42.827Z,44.54
2023-03-30T17:28:16.558Z,44.59
2023-03-30T17:30:49.611Z,44.60
2023-03-30T17:33:22.353Z,44.59
2023-03-30T17:35:59.410Z,44.64
2023-03-30T17:38:32.497Z,44.68
2023-03-30T17:41:05.672Z,44.67
2023-03-30T17:43:38.449Z,44.70
2023-03-30T17:46:11.748Z,44.71
2023-03-30T17:48:44.403Z,44.72
2023-03-30T17:51:17.409Z,44.80
2023-03-30T17:53:50.607Z,44.03
2023-03-30T17:56:23.449Z,41.64
2023-03-30T17:58:56.604Z,40.66
2023-03-30T18:01:29.624Z,40.49
2023-03-30T18:04:02.595Z,40.37
2023-03-30T18:06:35.458Z,40.83
2023-03-30T18:09:08.582Z,43.07
2023-03-30T18:11:41.780Z,42.82
2023-03-30T18:14:14.569Z,42.90
2023-03-30T18:16:50.228Z,43.01
2023-03-30T18:19:20.763Z,43.12
2023-03-30T18:21:53.809Z,43.19
2023-03-30T18:24:26.805Z,43.25
2023-03-30T18:26:59.923Z,43.41
2023-03-30T18:29:33.579Z,43.48
2023-03-30T18:32:06.529Z,43.53
2023-03-30T18:34:39.470Z,43.56
2023-03-30T18:37:12.666Z,43.65
2023-03-30T18:39:45.449Z,43.70
2023-03-30T18:42:18.488Z,43.77
2023-03-30T18:44:51.731Z,43.78
2023-03-30T18:47:24.526Z,43.86
2023-03-30T18:49:57.830Z,43.86
2023-03-30T18:52:30.630Z,43.92
2023-03-30T18:55:03.563Z,43.96
2023-03-30T18:57:36.739Z,43.96
2023-03-30T19:00:09.839Z,43.99
2023-03-30T19:02:42.557Z,44.05
2023-03-30T19:05:15.764Z,44.06
2023-03-30T19:07:48.857Z,44.04
2023-03-30T19:10:21.814Z,44.08
2023-03-30T19:12:54.659Z,44.10
2023-03-30T19:15:29.657Z,44.11
2023-03-30T19:18:02.907Z,44.13
2023-03-30T19:20:35.726Z,44.13
2023-03-30T19:23:08.697Z,44.15
2023-03-30T19:25:41.532Z,44.15
2023-03-30T19:28:14.748Z,44.23
2023-03-30T19:30:47.619Z,44.26
2023-03-30T19:33:34.829Z,44.24
2023-03-30T19:36:07.808Z,44.27
2023-03-30T19:38:40.579Z,44.31
2023-03-30T19:41:13.854Z,44.31
2023-03-30T19:43:46.533Z,44.29
2023-03-30T19:46:19.606Z,44.37
2023-03-30T19:48:52.884Z,44.32
2023-03-30T19:51:25.860Z,44.29
2023-03-30T19:53:58.932Z,44.41
2023-03-30T19:56:32.180Z,44.40
2023-03-30T19:59:05.745Z,44.44
2023-03-30T20:01:39.028Z,44.39
2023-03-30T20:04:11.727Z,44.41
2023-03-30T20:06:44.868Z,44.39
2023-03-30T20:09:17.903Z,44.41
2023-03-30T20:11:50.665Z,44.42
2023-03-30T20:14:23.959Z,44.40
2023-03-30T20:16:57.126Z,44.46
2023-03-30T20:19:30.741Z,44.45
2023-03-30T20:22:03.960Z,44.45
2023-03-30T20:24:36.997Z,44.45
2023-03-30T20:27:09.623Z,44.48
2023-03-30T20:29:42.880Z,44.44
2023-03-30T20:32:15.649Z,44.46
2023-03-30T20:34:48.907Z,44.44
2023-03-30T20:37:21.916Z,44.48
2023-03-30T20:39:54.943Z,44.49
2023-03-30T20:42:27.776Z,44.48
2023-03-30T20:45:01.204Z,44.43
2023-03-30T20:47:34.146Z,44.53
2023-03-30T20:50:10.129Z,44.43
2023-03-30T20:52:43.688Z,44.55
2023-03-30T20:55:16.949Z,44.16
2023-03-30T20:57:49.953Z,43.65
2023-03-30T21:00:22.683Z,44.17
2023-03-30T21:02:55.885Z,44.20
2023-03-30T21:05:29.049Z,44.30
2023-03-30T21:08:15.892Z,44.35
2023-03-30T21:10:48.730Z,44.42
2023-03-30T21:13:22.086Z,44.47
2023-03-30T21:15:55.181Z,44.52
2023-03-30T21:18:28.854Z,44.46
2023-03-30T21:21:15.663Z,44.49
2023-03-30T21:23:48.726Z,44.54
2023-03-30T21:26:21.799Z,44.57
2023-03-30T21:28:54.890Z,44.63
2023-03-30T21:31:28.441Z,44.61
2023-03-30T21:34:02.033Z,44.67
2023-03-30T21:36:35.047Z,44.66
2023-03-30T21:39:08.108Z,44.67
2023-03-30T21:41:40.899Z,44.71
2023-03-30T21:44:14.077Z,44.63
2023-03-30T21:46:47.062Z,44.79
2023-03-30T21:49:34.149Z,44.79
2023-03-30T21:52:07.291Z,44.78
2023-03-30T21:54:41.125Z,44.83
2023-03-30T21:57:14.063Z,44.81
2023-03-30T21:59:47.016Z,44.81
2023-03-30T22:02:20.124Z,44.84
2023-03-30T22:04:53.072Z,44.84
2023-03-30T22:07:30.014Z,44.90
2023-03-30T22:10:03.200Z,44.91
2023-03-30T22:12:37.115Z,44.88
2023-03-30T22:15:10.169Z,44.94
2023-03-30T22:17:42.932Z,44.88
2023-03-30T22:20:16.074Z,45.21
2023-03-30T22:22:49.051Z,45.19
2023-03-30T22:25:24.838Z,45.24
2023-03-30T22:27:58.150Z,45.21
2023-03-30T22:30:44.757Z,45.13
2023-03-30T22:33:18.182Z,45.15
2023-03-30T22:35:51.158Z,45.20
2023-03-30T22:38:24.154Z,45.27
2023-03-30T22:40:56.985Z,45.19
2023-03-30T22:43:30.144Z,45.32
2023-03-30T22:46:03.648Z,45.22
2023-03-30T22:48:35.947Z,45.19
2023-03-30T22:51:08.994Z,45.19
2023-03-30T22:53:42.103Z,45.23
2023-03-30T22:56:14.865Z,45.28
2023-03-30T22:58:48.277Z,45.28
2023-03-30T23:01:22.239Z,45.32
2023-03-30T23:03:54.966Z,45.27
2023-03-30T23:06:28.173Z,45.34
2023-03-30T23:09:01.110Z,45.29
2023-03-30T23:11:33.981Z,45.33
2023-03-30T23:14:07.204Z,45.26
2023-03-30T23:16:40.293Z,45.33
2023-03-30T23:19:13.341Z,45.52
2023-03-30T23:21:47.263Z,45.57
2023-03-30T23:24:20.194Z,45.56
2023-03-30T23:26:53.164Z,45.50
2023-03-30T23:29:26.117Z,45.57
2023-03-30T23:31:59.146Z,45.54
2023-03-30T23:34:32.166Z,45.63
2023-03-30T23:37:05.253Z,45.56
2023-03-30T23:39:38.058Z,45.54
2023-03-30T23:42:11.263Z,45.63
2023-03-30T23:44:44.426Z,45.59
2023-03-30T23:47:17.891Z,45.63
2023-03-30T23:49:50.912Z,45.71
2023-03-30T23:52:23.938Z,45.69
2023-03-30T23:54:56.930Z,45.69
2023-03-30T23:57:30.248Z,45.70
